Time;durP1;ratioP1;P1;durP2;ratioP2;P2;SDS_P1;SDS_P2;PMS_P1;PMS_P2;Temp;Humidity;BMP_temperature;BMP_pressure;BME280_temperature;BME280_humidity;BME280_pressure;Samples;Min_cycle;Max_cycle;Signal;HPM_P1;HPM_P2
2023/04/15 00:00:14;;;;;;;73.88;8.82;;;;;;;14.54;83.79;101213.47;12857859;22;99185;-82
2023/04/15 00:05:18;;;;;;;45.97;7.50;;;;;;;14.48;83.54;101215.53;12857185;22;98909;-82
2023/04/15 00:10:23;;;;;;;44.97;7.32;;;;;;;14.40;83.71;101228.22;12857244;22;98648;-82
2023/04/15 00:15:26;;;;;;;137.93;10.55;;;;;;;14.44;83.62;101221.84;12856642;22;100116;-82
2023/04/15 00:20:29;;;;;;;8.38;4.32;;;;;;;14.33;83.41;101229.38;12857183;22;98596;-82
2023/04/15 00:25:33;;;;;;;8.68;4.05;;;;;;;14.31;83.01;101228.56;12857733;22;99150;-82
2023/04/15 00:30:37;;;;;;;13.50;5.13;;;;;;;14.34;82.85;101220.50;12857026;22;98994;-82
2023/04/15 00:35:41;;;;;;;31.80;6.47;;;;;;;14.26;82.86;101227.88;12856977;22;99251;-82
2023/04/15 00:40:45;;;;;;;52.42;7.88;;;;;;;14.24;82.95;101217.38;12855101;22;97890;-82
2023/04/15 00:45:49;;;;;;;;;;;;;;;14.13;83.22;101221.34;12857686;22;99100;-82
2023/04/15 00:50:53;;;;;;;183.05;12.25;;;;;;;14.01;83.39;101209.41;12856802;22;98920;-82
2023/04/15 00:55:57;;;;;;;20.63;5.80;;;;;;;14.14;83.08;101217.78;12856487;22;99097;-82
2023/04/15 01:01:01;;;;;;;139.35;10.73;;;;;;;14.15;83.14;101216.84;12856906;22;98760;-82
2023/04/15 01:06:04;;;;;;;140.07;10.60;;;;;;;14.14;83.29;101215.13;12856230;22;96764;-82
2023/04/15 01:11:10;;;;;;;362.67;18.92;;;;;;;14.03;83.41;101204.97;12856617;22;98901;-82
2023/04/15 01:16:14;;;;;;;99.93;10.18;;;;;;;14.10;83.64;101201.16;12855480;22;97834;-82
2023/04/15 01:21:18;;;;;;;13.90;5.35;;;;;;;14.12;82.93;101204.63;12857298;22;99284;-82
2023/04/15 01:26:23;;;;;;;72.17;8.17;;;;;;;14.13;83.00;101194.88;12856518;22;99197;-82
2023/04/15 01:31:26;;;;;;;;;;;;;;;14.08;83.15;101196.81;12855510;22;99036;-82
2023/04/15 01:36:29;;;;;;;55.28;7.28;;;;;;;14.20;83.14;101199.88;12856480;22;98944;-82
2023/04/15 01:41:34;;;;;;;19.30;6.38;;;;;;;14.22;82.79;101191.88;12856432;22;99131;-82
2023/04/15 01:46:37;;;;;;;97.97;9.25;;;;;;;14.25;82.56;101189.09;12856623;22;99127;-82
2023/04/15 01:51:41;;;;;;;16.50;6.47;;;;;;;14.12;83.09;101188.72;12855911;22;98798;-82
2023/04/15 01:56:45;;;;;;;10.23;5.60;;;;;;;14.11;82.70;101187.00;12856094;22;98804;-82
2023/04/15 02:01:49;;;;;;;20.98;6.65;;;;;;;14.10;82.72;101190.56;12855964;22;97524;-82
2023/04/15 02:06:52;;;;;;;31.75;7.47;;;;;;;14.09;82.71;101195.94;12857010;22;99416;-82
2023/04/15 02:11:57;;;;;;;11.02;5.60;;;;;;;13.77;83.28;101193.59;12855918;22;99040;-82
2023/04/15 02:17:06;;;;;;;9.90;5.13;;;;;;;13.59;83.40;101198.66;12855903;22;99073;-81
2023/04/15 02:22:10;;;;;;;6.10;4.90;;;;;;;13.55;83.45;101201.47;12854329;22;99085;-82
2023/04/15 02:27:17;;;;;;;10.90;5.43;;;;;;;13.39;83.71;101195.91;12855585;22;99080;-82
2023/04/15 02:32:23;;;;;;;7.82;4.75;;;;;;;13.38;83.33;101199.44;12855767;22;98954;-82
2023/04/15 02:37:27;;;;;;;8.32;4.60;;;;;;;13.35;83.62;101199.56;12855475;22;98822;-82
2023/04/15 02:42:32;;;;;;;6.07;4.20;;;;;;;13.29;83.62;101196.28;12855741;22;99194;-82
2023/04/15 02:47:35;;;;;;;6.60;4.03;;;;;;;13.23;83.59;101197.34;12856154;22;98869;-82
2023/04/15 02:52:40;;;;;;;7.75;4.35;;;;;;;13.30;83.30;101200.63;12854689;22;98980;-82
2023/04/15 02:57:44;;;;;;;6.63;3.90;;;;;;;13.15;83.43;101190.63;12856228;22;99175;-82
2023/04/15 03:02:50;;;;;;;8.10;3.60;;;;;;;13.09;83.30;101198.72;12855389;22;98977;-82
2023/04/15 03:07:54;;;;;;;7.75;3.38;;;;;;;13.04;83.33;101190.09;12855540;22;98968;-82
2023/04/15 03:12:59;;;;;;;9.35;3.28;;;;;;;13.05;82.57;101194.50;12853538;22;99101;-82
2023/04/15 03:18:03;;;;;;;7.15;3.28;;;;;;;12.99;82.65;101186.75;12854818;22;98954;-81
2023/04/15 03:23:06;;;;;;;6.50;3.10;;;;;;;12.91;82.59;101194.97;12854841;22;99009;-81
2023/04/15 03:28:10;;;;;;;8.85;4.10;;;;;;;12.87;82.64;101190.69;12854785;22;99117;-81
2023/04/15 03:33:14;;;;;;;4.93;2.95;;;;;;;12.77;82.62;101188.41;12854418;22;98226;-81
2023/04/15 03:38:17;;;;;;;5.72;2.92;;;;;;;12.75;82.45;101191.13;12853996;22;97807;-81
2023/04/15 03:43:21;;;;;;;7.22;2.80;;;;;;;12.78;81.57;101193.66;12856936;22;98299;-82
2023/04/15 03:48:25;;;;;;;5.60;2.55;;;;;;;12.84;81.66;101198.75;12858425;22;98934;-81
2023/04/15 03:53:28;;;;;;;6.88;2.63;;;;;;;12.74;81.20;101193.81;12856809;22;97833;-81
2023/04/15 03:58:33;;;;;;;5.88;2.78;;;;;;;12.71;80.56;101196.53;12857556;22;98883;-81
2023/04/15 04:03:36;;;;;;;4.20;2.70;;;;;;;12.75;80.63;101203.44;12856465;22;98953;-81
2023/04/15 04:08:39;;;;;;;5.88;2.33;;;;;;;12.80;80.46;101210.31;12857299;22;98925;-81
2023/04/15 04:13:44;;;;;;;4.05;2.30;;;;;;;13.00;79.98;101220.22;12856881;22;99116;-81
2023/04/15 04:18:47;;;;;;;8.18;2.90;;;;;;;13.07;80.08;101224.38;12857477;22;98916;-82
2023/04/15 04:23:51;;;;;;;5.97;2.80;;;;;;;13.14;80.08;101218.81;12857182;22;98778;-81
2023/04/15 04:28:55;;;;;;;11.25;3.75;;;;;;;13.23;79.84;101213.22;12856887;22;99178;-82
2023/04/15 04:33:58;;;;;;;4.80;2.53;;;;;;;13.32;79.57;101215.53;12857138;22;98919;-82
2023/04/15 04:39:01;;;;;;;4.53;2.47;;;;;;;13.26;79.25;101214.91;12858066;22;99377;-82
2023/04/15 04:44:06;;;;;;;6.85;2.58;;;;;;;13.22;78.49;101215.91;12857083;22;99124;-82
2023/04/15 04:49:09;;;;;;;4.75;2.47;;;;;;;13.20;78.21;101215.97;12856909;22;98878;-82
2023/04/15 04:54:13;;;;;;;6.68;2.70;;;;;;;13.24;77.89;101222.84;12854925;22;99010;-82
2023/04/15 04:59:17;;;;;;;5.50;2.58;;;;;;;13.04;78.69;101217.41;12856497;22;98138;-82
2023/04/15 05:04:21;;;;;;;8.35;2.55;;;;;;;12.91;78.56;101229.31;12857277;22;99090;-81
2023/04/15 05:09:24;;;;;;;4.70;2.40;;;;;;;12.80;78.63;101226.16;12856841;22;99127;-81
2023/04/15 05:14:29;;;;;;;6.53;2.65;;;;;;;12.95;78.19;101235.34;12856280;22;99169;-81
2023/04/15 05:19:32;;;;;;;7.00;2.85;;;;;;;12.91;78.31;101228.44;12856757;22;97887;-81
2023/04/15 05:24:35;;;;;;;11.05;3.50;;;;;;;12.94;78.50;101239.78;12856462;22;98942;-82
2023/04/15 05:29:40;;;;;;;7.63;2.78;;;;;;;12.86;78.81;101235.66;12857359;22;99009;-81
2023/04/15 05:34:43;;;;;;;7.78;3.20;;;;;;;12.82;79.04;101228.75;12856290;22;99070;-81
2023/04/15 05:39:47;;;;;;;5.65;2.97;;;;;;;12.76;79.77;101229.81;12856750;22;99221;-81
2023/04/15 05:44:51;;;;;;;7.53;2.90;;;;;;;12.71;79.12;101233.50;12855671;22;98961;-81
2023/04/15 05:49:55;;;;;;;4.75;3.20;;;;;;;12.66;79.76;101236.31;12856349;22;97928;-81
2023/04/15 05:54:58;;;;;;;8.52;3.22;;;;;;;12.68;79.29;101247.69;12855548;22;99212;-81
2023/04/15 06:00:04;;;;;;;7.85;3.67;;;;;;;12.57;80.22;101250.63;12856204;22;99178;-81
2023/04/15 06:05:10;;;;;;;10.93;4.50;;;;;;;12.65;79.85;101257.50;12856014;22;99480;-81
2023/04/15 06:10:13;;;;;;;8.80;4.30;;;;;;;12.65;79.88;101258.38;12855177;22;97837;-81
2023/04/15 06:15:18;;;;;;;10.07;3.80;;;;;;;12.65;80.27;101261.00;12855629;22;99592;-81
2023/04/15 06:20:21;;;;;;;6.25;3.85;;;;;;;12.78;79.92;101266.72;12856900;22;99160;-81
2023/04/15 06:25:25;;;;;;;7.93;3.90;;;;;;;12.69;79.75;101273.16;12855820;22;98894;-82
2023/04/15 06:30:29;;;;;;;7.43;2.85;;;;;;;12.63;79.87;101269.84;12855647;22;98957;-82
2023/04/15 06:35:32;;;;;;;7.82;3.50;;;;;;;12.66;79.57;101275.91;12854138;22;98893;-81
2023/04/15 06:40:35;;;;;;;9.18;4.07;;;;;;;12.46;80.39;101283.59;12855882;22;99215;-82
2023/04/15 06:45:40;;;;;;;11.07;5.07;;;;;;;12.32;80.27;101291.06;12855512;22;98854;-82
2023/04/15 06:50:43;;;;;;;7.80;3.83;;;;;;;12.35;80.61;101290.94;12855618;22;98997;-82
2023/04/15 06:55:47;;;;;;;9.18;3.65;;;;;;;12.47;79.99;101291.44;12854492;22;99203;-82
2023/04/15 07:00:52;;;;;;;9.85;3.72;;;;;;;12.80;78.64;101294.84;12854991;22;99248;-82
2023/04/15 07:05:56;;;;;;;5.45;3.40;;;;;;;12.85;78.76;101300.81;12855399;22;99197;-82
2023/04/15 07:10:59;;;;;;;6.78;3.15;;;;;;;13.15;78.13;101291.91;12855938;22;99110;-82
2023/04/15 07:16:04;;;;;;;5.50;3.50;;;;;;;13.55;77.48;101301.97;12856165;22;99036;-82
2023/04/15 07:21:07;;;;;;;;;;;;;;;13.56;77.69;101298.41;12858629;22;99213;-82
2023/04/15 07:26:11;;;;;;;9.07;3.92;;;;;;;13.84;77.29;101295.63;12856665;22;99265;-82
2023/04/15 07:31:16;;;;;;;5.78;3.40;;;;;;;14.05;76.35;101295.75;12856894;22;98022;-82
2023/04/15 07:36:19;;;;;;;4.88;3.50;;;;;;;13.91;76.71;101289.19;12857588;22;98984;-82
2023/04/15 07:41:23;;;;;;;5.97;3.28;;;;;;;14.16;76.33;101292.72;12857686;22;98965;-82
2023/04/15 07:46:27;;;;;;;4.30;3.35;;;;;;;14.62;75.07;101288.22;12857378;22;98858;-82
2023/04/15 07:51:31;;;;;;;4.82;3.45;;;;;;;14.83;75.02;101268.78;12857307;22;98962;-82
2023/04/15 07:56:34;;;;;;;4.68;3.10;;;;;;;16.18;72.04;101281.47;12856963;22;99638;-82
2023/04/15 08:01:38;;;;;;;5.47;2.80;;;;;;;17.28;69.23;101281.38;12858826;22;99117;-82
2023/04/15 08:06:41;;;;;;;;;;;;;;;18.84;66.05;101279.97;12857586;22;99002;-83
2023/04/15 08:11:45;;;;;;;3.92;2.67;;;;;;;20.18;63.06;101282.50;12857558;22;98949;-83
2023/04/15 08:16:49;;;;;;;3.78;2.13;;;;;;;20.79;60.53;101290.16;12855764;22;98989;-83
2023/04/15 08:21:52;;;;;;;4.50;2.38;;;;;;;21.71;56.74;101275.88;12856767;22;98947;-83
2023/04/15 08:26:56;;;;;;;6.28;2.00;;;;;;;22.61;54.18;101280.06;12856977;22;98847;-83
2023/04/15 08:32:01;;;;;;;3.58;2.33;;;;;;;22.40;54.01;101290.53;12857151;22;99255;-83
2023/04/15 08:37:05;;;;;;;3.28;2.40;;;;;;;21.74;54.33;101289.06;12856729;22;100372;-83
2023/04/15 08:42:12;;;;;;;3.55;2.70;;;;;;;22.31;52.28;101283.16;12857148;22;98731;-83
2023/04/15 08:47:21;;;;;;;3.70;2.75;;;;;;;23.28;49.63;101290.22;12856401;22;96819;-83
2023/04/15 08:52:25;;;;;;;4.55;2.60;;;;;;;23.41;48.87;101291.00;12857544;22;99060;-83
2023/04/15 08:57:29;;;;;;;3.92;2.70;;;;;;;23.72;48.29;101289.53;12856701;22;99124;-83
2023/04/15 09:02:33;;;;;;;3.67;2.60;;;;;;;23.82;47.67;101293.22;12857013;22;99043;-83
2023/04/15 09:07:37;;;;;;;4.68;2.95;;;;;;;23.54;47.66;101293.66;12855721;22;97798;-83
2023/04/15 09:12:40;;;;;;;3.92;2.88;;;;;;;25.33;45.16;101299.69;12855990;22;99527;-83
2023/04/15 09:17:46;;;;;;;6.55;4.03;;;;;;;25.13;44.97;101300.50;12856592;22;98991;-83
2023/04/15 09:22:50;;;;;;;6.75;5.70;;;;;;;25.78;44.33;101301.19;12856287;22;99056;-83
2023/04/15 09:27:55;;;;;;;7.80;5.60;;;;;;;25.95;43.58;101297.91;12856480;22;99120;-84
2023/04/15 09:33:03;;;;;;;8.60;6.93;;;;;;;25.68;42.85;101301.09;12856895;22;98938;-83
2023/04/15 09:38:09;;;;;;;7.03;6.32;;;;;;;26.53;42.05;101296.31;12855876;22;98912;-83
2023/04/15 09:43:12;;;;;;;6.38;5.05;;;;;;;26.82;42.22;101290.00;12856712;22;98271;-84
2023/04/15 09:48:20;;;;;;;7.47;5.00;;;;;;;27.09;40.94;101289.38;12856297;22;98893;-83
2023/04/15 09:53:24;;;;;;;6.30;5.70;;;;;;;27.18;40.64;101291.25;12855871;22;99001;-83
2023/04/15 09:58:29;;;;;;;6.75;5.07;;;;;;;26.46;41.75;101293.31;12855316;22;99134;-84
2023/04/15 10:03:36;;;;;;;5.32;4.47;;;;;;;27.04;41.86;101305.16;12855432;22;97641;-84
2023/04/15 10:08:40;;;;;;;4.20;3.75;;;;;;;26.90;41.99;101292.84;12856176;22;98966;-84
2023/04/15 10:13:44;;;;;;;6.40;4.30;;;;;;;26.17;43.76;101292.31;12855609;22;99136;-84
2023/04/15 10:18:57;;;;;;;7.55;5.20;;;;;;;26.67;42.07;101288.72;12855929;22;99140;-83
2023/04/15 10:24:01;;;;;;;7.17;5.60;;;;;;;27.10;41.96;101282.97;12855730;22;99212;-84
2023/04/15 10:29:05;;;;;;;7.53;5.57;;;;;;;27.54;40.84;101271.59;12855039;22;97835;-83
2023/04/15 10:34:11;;;;;;;6.78;5.10;;;;;;;26.73;40.89;101271.94;12856740;22;99003;-84
2023/04/15 10:39:44;;;;;;;6.78;4.82;;;;;;;27.16;40.09;101260.81;12855491;22;99087;-84
2023/04/15 10:44:50;;;;;;;7.00;4.67;;;;;;;26.96;39.96;101264.44;12733383;22;99237;-84
2023/04/15 10:49:58;;;;;;;6.10;5.07;;;;;;;26.51;42.12;101258.66;12855596;22;98316;-83
2023/04/15 10:55:14;;;;;;;9.82;5.22;;;;;;;26.18;42.98;101256.25;12856855;22;98032;-84
2023/04/15 11:00:19;;;;;;;7.68;5.10;;;;;;;25.71;42.44;101252.31;12858006;22;99119;-84
2023/04/15 11:05:51;;;;;;;5.35;3.40;;;;;;;26.10;39.60;101249.81;12858604;22;99389;-83
2023/04/15 11:10:54;;;;;;;6.90;3.80;;;;;;;25.93;39.72;101244.06;12857722;22;98698;-83
2023/04/15 11:16:03;;;;;;;8.48;3.75;;;;;;;25.70;40.37;101241.66;12858027;22;98487;-83
2023/04/15 11:21:09;;;;;;;5.97;3.53;;;;;;;25.84;39.74;101231.41;12858375;22;98916;-83
2023/04/15 11:26:13;;;;;;;6.20;3.50;;;;;;;25.43;41.28;101223.28;12858239;22;98995;-83
2023/04/15 11:31:18;;;;;;;8.30;4.60;;;;;;;25.06;41.77;101218.47;12857539;22;98849;-83
2023/04/15 11:36:27;;;;;;;9.40;4.38;;;;;;;25.43;41.23;101207.13;12857790;22;98978;-83
2023/04/15 11:41:30;;;;;;;6.07;4.30;;;;;;;25.27;41.35;101206.75;12857046;22;99087;-83
2023/04/15 11:46:33;;;;;;;9.50;5.80;;;;;;;24.50;42.22;101202.50;12857247;22;99188;-83
2023/04/15 11:51:38;;;;;;;6.80;5.17;;;;;;;24.88;41.73;101201.16;12857234;22;99117;-83
2023/04/15 11:56:41;;;;;;;10.13;5.70;;;;;;;24.94;42.70;101190.72;12857247;22;99154;-83
2023/04/15 12:01:46;;;;;;;7.73;5.50;;;;;;;24.71;42.85;101189.97;12855580;22;97817;-83
2023/04/15 12:06:51;;;;;;;8.82;5.00;;;;;;;24.39;44.63;101182.84;12857204;22;98941;-83
2023/04/15 12:11:58;;;;;;;10.25;5.25;;;;;;;24.43;42.99;101181.59;12857607;22;97815;-83
2023/04/15 12:17:03;;;;;;;10.60;5.03;;;;;;;23.98;44.89;101188.00;12855362;22;98967;-80
2023/04/15 12:22:10;;;;;;;10.27;6.47;;;;;;;23.82;45.18;101172.25;12854796;22;99209;-79
2023/04/15 12:27:14;;;;;;;9.82;6.15;;;;;;;23.62;46.05;101176.53;12854295;22;98981;-76
2023/04/15 12:32:21;;;;;;;10.65;6.63;;;;;;;23.55;46.69;101164.53;12853316;22;99055;-81
2023/04/15 12:37:26;;;;;;;9.38;6.03;;;;;;;23.35;47.53;101161.69;12854901;22;99205;-85
2023/04/15 12:42:31;;;;;;;8.48;5.97;;;;;;;23.54;48.01;101160.16;12857757;22;99243;-85
2023/04/15 12:47:36;;;;;;;9.95;5.70;;;;;;;23.36;49.05;101149.94;12854990;22;99148;-83
2023/04/15 12:52:47;;;;;;;10.02;6.30;;;;;;;23.36;48.17;101144.56;12859462;22;99036;-84
2023/04/15 12:57:51;;;;;;;12.32;6.20;;;;;;;23.29;49.16;101141.50;12856967;22;98911;-84
2023/04/15 13:02:55;;;;;;;;;;;;;;;23.38;49.44;101134.56;12858284;22;99309;-85
2023/04/15 13:08:03;;;;;;;9.35;5.22;;;;;;;23.36;48.24;101128.44;12860989;22;98940;-85
2023/04/15 13:13:07;;;;;;;8.23;5.60;;;;;;;23.52;49.51;101116.38;12857315;22;98763;-84
2023/04/15 13:18:18;;;;;;;10.10;6.50;;;;;;;23.50;49.21;101115.66;12856242;22;98891;-84
2023/04/15 13:23:25;;;;;;;11.82;6.43;;;;;;;23.60;50.04;101115.78;12852816;22;97503;-84
2023/04/15 13:28:36;;;;;;;8.77;6.03;;;;;;;23.17;49.54;101112.06;12855098;22;98662;-85
2023/04/15 13:33:51;;;;;;;8.45;5.13;;;;;;;23.31;50.00;101106.47;12856740;22;97859;-84
2023/04/15 13:39:00;;;;;;;8.85;5.47;;;;;;;23.24;50.59;101106.09;12856842;22;98989;-84
2023/04/15 13:44:05;;;;;;;7.70;5.30;;;;;;;23.10;51.44;101102.78;12856926;22;99308;-84
2023/04/15 13:49:10;;;;;;;6.95;4.55;;;;;;;23.27;51.37;101111.22;12856837;22;99699;-84
2023/04/15 13:54:20;;;;;;;7.20;4.70;;;;;;;23.14;51.84;101104.25;12852951;22;99265;-81
2023/04/15 13:59:26;;;;;;;7.32;5.63;;;;;;;23.13;52.14;101106.09;12857726;22;98090;-83
2023/04/15 14:04:32;;;;;;;6.43;4.82;;;;;;;22.90;51.51;101093.59;12852426;22;99045;-84
2023/04/15 14:09:41;;;;;;;6.38;4.88;;;;;;;22.99;50.75;101084.00;12853593;22;98838;-84
2023/04/15 14:14:46;;;;;;;8.45;4.88;;;;;;;22.88;52.02;101086.63;12851273;22;98499;-85
2023/04/15 14:19:50;;;;;;;;;;;;;;;22.67;51.78;101077.50;12856083;22;102111;-87
2023/04/15 14:24:57;;;;;;;7.87;4.20;;;;;;;23.26;52.16;101074.63;12855357;22;98813;-87
2023/04/15 14:30:02;;;;;;;7.28;4.40;;;;;;;23.43;51.72;101074.13;12856169;22;98923;-86
2023/04/15 14:35:06;;;;;;;8.63;4.70;;;;;;;23.29;52.48;101065.44;12855919;22;98820;-86
2023/04/15 14:40:20;;;;;;;6.65;4.28;;;;;;;23.29;52.33;101058.25;12855591;22;98982;-86
2023/04/15 14:45:26;;;;;;;6.47;3.88;;;;;;;23.40;52.87;101050.22;12856096;22;98947;-86
2023/04/15 14:50:30;;;;;;;7.00;4.25;;;;;;;23.77;52.60;101045.41;12856484;22;98964;-86
2023/04/15 14:55:38;;;;;;;6.72;4.40;;;;;;;23.72;52.30;101027.97;12854810;22;98976;-87
2023/04/15 15:00:43;;;;;;;10.52;5.07;;;;;;;24.05;51.18;101022.50;12855381;22;99034;-86
2023/04/15 15:05:46;;;;;;;6.80;4.00;;;;;;;24.26;50.20;101026.06;12853676;22;98947;-86
2023/04/15 15:10:51;;;;;;;8.30;4.47;;;;;;;24.39;49.70;101016.84;12855196;22;98948;-86
2023/04/15 15:15:57;;;;;;;5.57;4.32;;;;;;;24.48;49.81;101012.56;12854921;22;98965;-86
2023/04/15 15:21:01;;;;;;;6.32;4.10;;;;;;;24.08;51.31;101006.94;12855077;22;98928;-86
2023/04/15 15:26:06;;;;;;;6.83;4.40;;;;;;;23.77;50.30;101009.63;12854315;22;98879;-87
2023/04/15 15:31:09;;;;;;;10.18;6.25;;;;;;;23.92;50.94;101002.97;12854737;22;98951;-87
2023/04/15 15:36:13;;;;;;;9.67;4.90;;;;;;;23.68;51.66;100993.25;12856081;22;99081;-86
2023/04/15 15:41:17;;;;;;;11.95;5.25;;;;;;;23.33;52.16;100995.25;12858399;22;98891;-86
2023/04/15 15:46:22;;;;;;;8.85;5.07;;;;;;;23.55;51.33;100991.72;12857354;22;98890;-86
2023/04/15 15:51:26;;;;;;;9.13;4.95;;;;;;;23.57;51.84;100987.94;12857248;22;98900;-85
2023/04/15 15:56:33;;;;;;;12.98;5.32;;;;;;;23.38;51.77;100994.88;12856114;22;98907;-86
2023/04/15 16:01:37;;;;;;;9.30;4.80;;;;;;;23.19;52.39;100984.78;12854165;22;98779;-85
2023/04/15 16:06:46;;;;;;;9.53;5.13;;;;;;;23.16;52.70;100982.34;12855079;22;99018;-81
2023/04/15 16:11:53;;;;;;;9.63;5.32;;;;;;;23.18;52.90;100977.66;12854003;22;99293;-82
2023/04/15 16:16:56;;;;;;;10.13;5.28;;;;;;;22.91;53.60;100979.03;12851568;22;98977;-80
2023/04/15 16:22:00;;;;;;;10.57;5.17;;;;;;;22.90;53.72;100982.69;12854329;22;98981;-81
2023/04/15 16:27:05;;;;;;;9.68;5.43;;;;;;;22.84;54.46;100988.53;12854192;22;99095;-78
2023/04/15 16:32:08;;;;;;;8.65;5.13;;;;;;;22.67;54.23;100988.97;12856342;22;99275;-79
2023/04/15 16:37:12;;;;;;;12.63;5.67;;;;;;;22.71;54.21;100980.56;12854350;22;98931;-79
2023/04/15 16:42:18;;;;;;;9.05;5.03;;;;;;;22.55;55.09;100983.59;12855159;22;98942;-81
2023/04/15 16:47:21;;;;;;;8.90;4.65;;;;;;;22.38;55.17;100978.69;12853036;22;98827;-77
2023/04/15 16:52:24;;;;;;;8.70;4.75;;;;;;;22.28;55.90;100971.47;12855015;22;99308;-80
2023/04/15 16:57:29;;;;;;;9.40;4.40;;;;;;;22.21;56.54;100971.03;12855587;22;98935;-80
2023/04/15 17:02:52;;;;;;;;;;;;;;;22.13;57.76;100978.81;12855135;22;101277;-80
2023/04/15 17:07:55;;;;;;;11.77;4.75;;;;;;;22.07;57.58;100971.25;12855384;22;98947;-81
2023/04/15 17:13:00;;;;;;;11.32;4.80;;;;;;;21.98;58.33;100976.41;12856295;22;98829;-82
2023/04/15 17:18:04;;;;;;;8.90;4.30;;;;;;;21.93;58.83;100979.47;12856868;22;99054;-82
2023/04/15 17:23:08;;;;;;;8.77;4.25;;;;;;;21.83;59.18;100972.22;12857971;22;99073;-81
2023/04/15 17:28:12;;;;;;;9.20;4.63;;;;;;;21.88;59.73;100975.41;12856328;22;99128;-81
2023/04/15 17:33:16;;;;;;;13.90;4.95;;;;;;;21.72;60.23;100970.34;12856104;22;99322;-81
2023/04/15 17:38:39;;;;;;;14.30;5.13;;;;;;;21.55;60.60;100976.09;12854763;22;100231;-80
2023/04/15 17:43:48;;;;;;;9.85;4.82;;;;;;;21.67;60.30;100977.00;12855582;22;99312;-84
2023/04/15 17:49:22;;;;;;;10.88;5.00;;;;;;;21.73;60.35;100972.03;12600343;23;98615;-83
2023/04/15 18:01:27;;;;;;;;;;;;;;;;;;;;;
2023/04/15 18:06:44;;;;;;;12.13;4.22;;;;;;;21.61;61.32;100958.69;12498590;23;99036;-81
2023/04/15 18:11:48;;;;;;;9.18;4.63;;;;;;;21.56;61.83;100959.03;12594694;23;100780;-82
2023/04/15 18:16:52;;;;;;;9.38;4.47;;;;;;;21.46;62.01;100968.72;12601593;23;98960;-82
2023/04/15 18:22:05;;;;;;;10.02;5.00;;;;;;;21.27;62.51;100969.22;12600552;23;98948;-83
2023/04/15 18:27:08;;;;;;;10.60;4.97;;;;;;;21.11;63.28;100968.56;12600264;23;98923;-82
2023/04/15 18:32:16;;;;;;;10.50;4.88;;;;;;;20.98;63.96;100974.91;12598761;23;99432;-83
2023/04/15 18:37:34;;;;;;;10.07;5.07;;;;;;;20.84;64.62;100964.31;12755318;22;99024;-82
2023/04/15 18:42:38;;;;;;;12.75;5.38;;;;;;;20.75;64.65;100965.81;12854478;22;98821;-81
2023/04/15 18:47:41;;;;;;;11.90;5.38;;;;;;;20.69;64.66;100968.06;12855050;22;98983;-81
2023/04/15 18:53:03;;;;;;;13.48;5.43;;;;;;;20.55;65.29;100971.69;12854862;22;98957;-84
2023/04/15 18:58:07;;;;;;;12.85;5.65;;;;;;;20.51;65.06;100975.56;12853487;22;98917;-80
2023/04/15 19:03:11;;;;;;;12.98;5.40;;;;;;;20.47;65.36;100983.88;12854140;22;98069;-79
2023/04/15 19:08:16;;;;;;;13.15;4.57;;;;;;;20.34;65.93;100982.03;12855970;22;98402;-79
2023/04/15 19:13:21;;;;;;;15.30;5.38;;;;;;;20.26;66.29;100984.34;12857821;22;99022;-78
2023/04/15 19:18:25;;;;;;;10.50;4.72;;;;;;;20.18;66.34;100986.69;12857554;22;99007;-78
2023/04/15 19:23:30;;;;;;;12.03;5.33;;;;;;;20.08;66.60;100990.09;12855896;22;99205;-78
2023/04/15 19:28:34;;;;;;;12.63;4.90;;;;;;;19.97;67.19;100988.13;12856338;22;99277;-78
2023/04/15 19:33:37;;;;;;;11.70;5.68;;;;;;;19.84;68.12;100997.06;12856577;22;99046;-79
2023/04/15 19:38:42;;;;;;;13.23;6.22;;;;;;;19.65;68.92;101002.72;12857652;22;98949;-79
2023/04/15 19:43:44;;;;;;;;;;;;;;;19.43;69.68;101010.41;12856712;22;97782;-78
2023/04/15 19:48:48;;;;;;;12.95;6.13;;;;;;;19.34;69.46;101004.78;12857136;22;98710;-79
2023/04/15 19:53:54;;;;;;;11.38;6.05;;;;;;;19.24;69.86;101008.03;12856794;22;98887;-79
2023/04/15 19:58:58;;;;;;;13.48;7.28;;;;;;;19.08;70.21;101014.41;12857162;22;98905;-80
2023/04/15 20:04:02;;;;;;;18.13;7.87;;;;;;;18.95;70.80;101027.69;12854873;22;97790;-78
2023/04/15 20:09:07;;;;;;;10.88;6.97;;;;;;;18.85;71.10;101041.69;12855249;22;98878;-79
2023/04/15 20:14:13;;;;;;;11.55;6.95;;;;;;;18.73;71.69;101058.41;12854742;22;99039;-79
2023/04/15 20:19:16;;;;;;;11.85;6.10;;;;;;;18.62;71.93;101058.19;12855787;22;98953;-79
2023/04/15 20:24:23;;;;;;;12.32;6.45;;;;;;;18.42;72.37;101069.16;12853484;22;99219;-79
2023/04/15 20:29:26;;;;;;;13.88;6.55;;;;;;;18.20;72.99;101072.22;12854755;22;98883;-76
2023/04/15 20:34:31;;;;;;;14.93;6.97;;;;;;;18.23;73.02;101076.50;12855995;22;99484;-79
2023/04/15 20:39:35;;;;;;;14.38;6.97;;;;;;;18.29;72.99;101078.81;12854735;22;99495;-77
2023/04/15 20:44:39;;;;;;;12.35;6.20;;;;;;;18.25;72.92;101088.78;12854971;22;97712;-81
2023/04/15 20:49:43;;;;;;;11.15;6.05;;;;;;;18.12;73.30;101083.28;12855709;22;98898;-75
2023/04/15 20:54:47;;;;;;;8.65;5.97;;;;;;;18.13;73.63;101085.03;12855186;22;99024;-80
2023/04/15 20:59:51;;;;;;;13.10;6.78;;;;;;;18.12;73.49;101093.94;12856134;22;98866;-82
2023/04/15 21:04:56;;;;;;;12.45;6.07;;;;;;;17.92;74.05;101099.56;12854262;22;99105;-87
2023/04/15 21:10:04;;;;;;;16.60;6.65;;;;;;;17.81;74.22;101099.28;12855267;22;99122;-82
2023/04/15 21:15:09;;;;;;;12.43;6.85;;;;;;;17.81;74.42;101104.63;12852885;22;98811;-81
2023/04/15 21:20:14;;;;;;;13.07;6.63;;;;;;;17.66;74.39;101099.28;12855087;22;98863;-84
2023/04/15 21:25:21;;;;;;;10.95;6.15;;;;;;;17.51;74.41;101095.69;12855264;22;98997;-83
2023/04/15 21:30:30;;;;;;;13.40;6.95;;;;;;;17.46;74.93;101099.50;12854992;22;102179;-83
2023/04/15 21:35:34;;;;;;;14.75;5.97;;;;;;;17.48;74.38;101095.84;12851301;22;98974;-84
2023/04/15 21:40:42;;;;;;;12.30;6.22;;;;;;;17.51;74.75;101102.78;12854415;22;98867;-83
2023/04/15 21:45:46;;;;;;;10.57;5.75;;;;;;;17.44;74.69;101099.59;12854951;22;98971;-83
2023/04/15 21:51:13;;;;;;;14.15;6.22;;;;;;;17.30;74.81;101094.13;12854470;22;100664;-82
2023/04/15 21:56:41;;;;;;;;;;;;;;;;;;;;;
2023/04/15 22:01:46;;;;;;;11.85;6.40;;;;;;;17.01;75.74;101101.03;12855345;22;98985;-82
2023/04/15 22:06:51;;;;;;;10.65;6.03;;;;;;;17.03;75.37;101096.47;12854712;22;100869;-82
2023/04/15 22:12:00;;;;;;;10.40;6.13;;;;;;;17.12;74.91;101089.78;12854213;22;98942;-82
2023/04/15 22:17:04;;;;;;;12.75;6.53;;;;;;;16.99;75.62;101086.06;12854876;22;99013;-81
2023/04/15 22:22:09;;;;;;;12.32;6.40;;;;;;;16.98;75.37;101087.03;12855255;22;96901;-80
2023/04/15 22:27:16;;;;;;;11.27;6.00;;;;;;;16.86;75.37;101085.84;12855776;22;99418;-80
2023/04/15 22:32:20;;;;;;;11.80;5.82;;;;;;;16.75;75.55;101085.56;12855633;22;99702;-81
2023/04/15 22:37:29;;;;;;;13.13;6.22;;;;;;;16.83;75.16;101074.50;12854757;22;98985;-82
2023/04/15 22:42:40;;;;;;;12.38;6.97;;;;;;;16.72;75.90;101071.56;12854601;22;99032;-83
2023/04/15 22:47:43;;;;;;;14.38;6.53;;;;;;;16.72;75.75;101071.56;12853557;22;99163;-83
2023/04/15 22:52:47;;;;;;;11.90;7.50;;;;;;;16.53;76.46;101065.50;12853638;22;98925;-83
2023/04/15 22:57:51;;;;;;;16.35;7.78;;;;;;;16.41;77.09;101068.78;12854437;22;99097;-83
2023/04/15 23:02:55;;;;;;;17.83;7.85;;;;;;;16.21;77.29;101072.38;12854123;22;98907;-83
2023/04/15 23:07:58;;;;;;;15.50;6.95;;;;;;;16.16;77.31;101073.53;12852796;22;99076;-83
2023/04/15 23:13:03;;;;;;;12.20;6.32;;;;;;;16.21;77.51;101074.16;12853723;22;99244;-83
2023/04/15 23:18:06;;;;;;;13.68;6.97;;;;;;;16.29;77.29;101078.16;12854606;22;98884;-83
2023/04/15 23:23:09;;;;;;;11.73;6.90;;;;;;;16.36;76.54;101073.44;12855148;22;98935;-83
2023/04/15 23:28:16;;;;;;;13.40;7.38;;;;;;;16.44;76.64;101065.94;12852066;22;98647;-83